createdAt,value
2024-02-29T00:00:17.647Z,24.98
2024-02-29T00:02:21.710Z,26.15
2024-02-29T00:04:25.784Z,25.65
2024-02-29T00:06:29.041Z,24.83
2024-02-29T00:08:32.240Z,24.90
2024-02-29T00:10:34.468Z,26.05
2024-02-29T00:12:39.896Z,28.10
2024-02-29T00:14:45.816Z,23.45
2024-02-29T00:16:49.135Z,25.95
2024-02-29T00:18:52.344Z,24.45
2024-02-29T00:20:55.534Z,26.65
2024-02-29T00:22:58.678Z,25.05
2024-02-29T00:25:01.782Z,25.33
2024-02-29T00:27:05.138Z,25.90
2024-02-29T00:29:10.725Z,26.90
2024-02-29T00:31:14.389Z,26.85
2024-02-29T00:33:19.676Z,25.67
2024-02-29T00:35:24.878Z,25.00
2024-02-29T00:37:29.633Z,25.35
2024-02-29T00:39:32.911Z,27.02
2024-02-29T00:41:36.139Z,25.90
2024-02-29T00:43:39.353Z,25.52
2024-02-29T00:45:44.092Z,26.42
2024-02-29T00:47:47.324Z,26.15
2024-02-29T00:49:53.113Z,25.55
2024-02-29T00:51:56.510Z,27.25
2024-02-29T00:53:59.759Z,28.98
2024-02-29T00:56:02.887Z,27.75
2024-02-29T00:58:06.458Z,26.92
2024-02-29T01:00:13.097Z,27.42
2024-02-29T01:02:17.958Z,25.25
2024-02-29T01:04:21.066Z,27.33
2024-02-29T01:06:24.273Z,24.10
2024-02-29T01:08:27.447Z,25.48
2024-02-29T01:10:30.708Z,25.08
2024-02-29T01:12:40.714Z,26.35
2024-02-29T01:14:43.957Z,26.90
2024-02-29T01:16:46.240Z,25.42
2024-02-29T01:18:50.954Z,26.52
2024-02-29T01:20:54.131Z,26.50
2024-02-29T01:22:56.316Z,29.65
2024-02-29T01:24:59.560Z,26.65
2024-02-29T01:27:01.747Z,27.30
2024-02-29T01:29:05.143Z,26.58
2024-02-29T01:31:08.492Z,29.77
2024-02-29T01:33:11.796Z,28.23
2024-02-29T01:35:16.787Z,25.83
2024-02-29T01:37:20.217Z,26.88
2024-02-29T01:39:23.643Z,24.85
2024-02-29T01:41:27.265Z,25.15
2024-02-29T01:43:31.529Z,26.83
2024-02-29T01:45:34.771Z,24.73
2024-02-29T01:47:37.180Z,23.60
2024-02-29T01:49:40.704Z,24.52
2024-02-29T01:51:47.518Z,24.00
2024-02-29T01:53:51.014Z,24.50
2024-02-29T01:55:54.261Z,24.60
2024-02-29T01:57:57.658Z,24.85
2024-02-29T02:00:06.043Z,23.80
2024-02-29T02:02:12.155Z,25.08
2024-02-29T02:04:15.404Z,26.25
2024-02-29T02:06:18.758Z,26.33
2024-02-29T02:08:25.015Z,27.20
2024-02-29T02:10:28.153Z,26.50
2024-02-29T02:12:31.515Z,24.35
2024-02-29T02:14:33.617Z,24.27
2024-02-29T02:16:36.870Z,26.42
2024-02-29T02:18:40.262Z,26.05
2024-02-29T02:20:43.833Z,26.40
2024-02-29T02:22:47.414Z,26.08
2024-02-29T02:24:49.384Z,24.48
2024-02-29T02:26:52.552Z,26.65
2024-02-29T02:28:54.950Z,25.60
2024-02-29T02:30:58.155Z,24.80
2024-02-29T02:33:03.575Z,24.05
2024-02-29T02:35:08.254Z,24.00
2024-02-29T02:37:12.070Z,22.70
2024-02-29T02:39:15.196Z,24.13
2024-02-29T02:41:18.250Z,21.65
2024-02-29T02:43:20.235Z,22.17
2024-02-29T02:45:23.455Z,21.67
2024-02-29T02:47:26.795Z,21.95
2024-02-29T02:49:29.810Z,20.05
2024-02-29T02:51:32.922Z,21.38
2024-02-29T02:53:36.659Z,23.40
2024-02-29T02:55:39.738Z,20.52
2024-02-29T02:57:42.871Z,19.70
2024-02-29T02:59:44.925Z,21.58
2024-02-29T03:01:48.079Z,21.15
2024-02-29T03:03:50.301Z,23.60
2024-02-29T03:05:53.379Z,24.35
2024-02-29T03:07:56.420Z,22.40
2024-02-29T03:10:00.866Z,23.63
2024-02-29T03:12:04.215Z,25.25
2024-02-29T03:14:07.340Z,25.52
2024-02-29T03:16:12.603Z,25.23
2024-02-29T03:18:18.441Z,25.77
2024-02-29T03:20:21.725Z,24.52
2024-02-29T03:22:24.851Z,27.13
2024-02-29T03:24:26.938Z,27.13
2024-02-29T03:26:31.401Z,26.05
2024-02-29T03:28:34.478Z,26.67
2024-02-29T03:30:37.549Z,26.50
2024-02-29T03:32:39.883Z,26.15
2024-02-29T03:34:42.965Z,26.05
2024-02-29T03:36:46.245Z,24.20
2024-02-29T03:38:49.439Z,25.20
2024-02-29T03:40:53.265Z,24.75
2024-02-29T03:42:57.738Z,24.90
2024-02-29T03:45:00.956Z,26.27
2024-02-29T03:47:03.165Z,24.77
2024-02-29T03:49:06.395Z,24.23
2024-02-29T03:51:09.804Z,24.15
2024-02-29T03:53:12.990Z,24.83
2024-02-29T03:55:16.478Z,24.23
2024-02-29T03:57:19.608Z,24.40
2024-02-29T03:59:25.221Z,26.42
2024-02-29T04:01:28.356Z,25.95
2024-02-29T04:03:30.882Z,24.25
2024-02-29T04:05:33.988Z,24.20
2024-02-29T04:07:42.928Z,25.17
2024-02-29T04:09:46.029Z,25.10
2024-02-29T04:11:50.444Z,24.58
2024-02-29T04:13:54.516Z,28.30
2024-02-29T04:15:58.990Z,27.85
2024-02-29T04:18:02.430Z,26.60
2024-02-29T04:20:07.022Z,26.48
2024-02-29T04:22:10.122Z,26.25
2024-02-29T04:24:13.182Z,26.52
2024-02-29T04:26:16.409Z,25.77
2024-02-29T04:28:19.531Z,26.40
2024-02-29T04:30:22.573Z,24.70
2024-02-29T04:32:26.919Z,25.02
2024-02-29T04:34:29.080Z,22.40
2024-02-29T04:36:32.907Z,23.05
2024-02-29T04:38:35.993Z,23.70
2024-02-29T04:40:38.505Z,22.75
2024-02-29T04:42:42.408Z,25.55
2024-02-29T04:44:45.918Z,25.38
2024-02-29T04:46:48.970Z,24.35
2024-02-29T04:48:53.567Z,25.75
2024-02-29T04:50:57.250Z,27.52
2024-02-29T04:52:59.348Z,25.90
2024-02-29T04:55:02.585Z,27.65
2024-02-29T04:57:07.829Z,25.05
2024-02-29T04:59:11.355Z,24.60
2024-02-29T05:01:14.881Z,24.40
2024-02-29T05:03:18.076Z,22.25
2024-02-29T05:05:22.010Z,22.38
2024-02-29T05:07:25.083Z,21.63
2024-02-29T05:09:28.156Z,22.23
2024-02-29T05:11:31.404Z,21.65
2024-02-29T05:13:34.486Z,22.15
2024-02-29T05:15:37.615Z,20.20
2024-02-29T05:17:40.862Z,20.23
2024-02-29T05:19:42.985Z,20.98
2024-02-29T05:21:48.370Z,21.77
2024-02-29T05:23:51.591Z,22.13
2024-02-29T05:25:54.760Z,22.33
2024-02-29T05:27:57.773Z,21.92
2024-02-29T05:30:02.520Z,21.30
2024-02-29T05:32:06.061Z,20.85
2024-02-29T05:34:09.651Z,20.17
2024-02-29T05:36:15.419Z,21.70
2024-02-29T05:38:20.127Z,20.67
2024-02-29T05:40:23.331Z,21.25
2024-02-29T05:42:29.426Z,21.83
2024-02-29T05:44:32.680Z,22.42
2024-02-29T05:46:35.893Z,23.25
2024-02-29T05:48:39.217Z,22.95
2024-02-29T05:50:42.371Z,22.30
2024-02-29T05:52:45.419Z,23.70
2024-02-29T05:54:50.622Z,24.95
2024-02-29T05:56:53.810Z,23.65
2024-02-29T05:58:56.861Z,25.67
2024-02-29T06:01:00.281Z,29.73
2024-02-29T06:03:03.667Z,28.00
2024-02-29T06:05:07.272Z,28.20
2024-02-29T06:07:10.781Z,26.10
2024-02-29T06:09:15.978Z,27.02
2024-02-29T06:11:20.730Z,27.63
2024-02-29T06:13:23.842Z,26.88
2024-02-29T06:15:25.828Z,25.92
2024-02-29T06:17:29.008Z,25.80
2024-02-29T06:19:32.131Z,25.55
2024-02-29T06:21:35.166Z,25.70
2024-02-29T06:23:37.931Z,24.70
2024-02-29T06:25:41.364Z,24.58
2024-02-29T06:27:46.057Z,23.60
2024-02-29T06:29:49.223Z,24.75
2024-02-29T06:31:52.643Z,25.58
2024-02-29T06:33:55.889Z,25.88
2024-02-29T06:35:59.127Z,26.17
2024-02-29T06:38:01.233Z,25.85
2024-02-29T06:40:09.215Z,24.77
2024-02-29T06:44:17.720Z,24.38
2024-02-29T06:46:20.765Z,28.33
2024-02-29T06:48:23.822Z,26.67
2024-02-29T06:50:25.874Z,26.65
2024-02-29T06:52:29.128Z,26.60
2024-02-29T06:54:32.228Z,27.60
2024-02-29T06:56:35.356Z,26.80
2024-02-29T06:58:38.624Z,26.80
2024-02-29T07:00:43.286Z,24.67
2024-02-29T07:02:46.474Z,26.17
2024-02-29T07:04:49.548Z,23.95
2024-02-29T07:06:52.719Z,25.00
2024-02-29T07:08:55.844Z,24.02
2024-02-29T07:11:02.075Z,24.83
2024-02-29T07:13:05.893Z,25.58
2024-02-29T07:15:09.255Z,24.10
2024-02-29T07:17:15.779Z,22.95
2024-02-29T07:19:20.016Z,23.90
2024-02-29T07:21:23.084Z,25.33
2024-02-29T07:23:26.297Z,23.60
2024-02-29T07:25:29.416Z,23.45
2024-02-29T07:27:34.493Z,23.30
2024-02-29T07:29:37.579Z,23.27
2024-02-29T07:31:43.312Z,24.23
2024-02-29T07:33:47.993Z,25.23
2024-02-29T07:35:51.192Z,25.52
2024-02-29T07:37:55.163Z,24.63
2024-02-29T07:40:00.417Z,24.33
2024-02-29T07:42:04.087Z,23.70
2024-02-29T07:44:07.542Z,25.42
2024-02-29T07:46:10.729Z,26.23
2024-02-29T07:48:14.475Z,23.83
2024-02-29T07:50:19.575Z,23.70
2024-02-29T07:52:22.744Z,25.00
2024-02-29T07:54:26.076Z,23.95
2024-02-29T07:56:30.454Z,22.67
2024-02-29T07:58:33.698Z,21.00
2024-02-29T08:00:39.102Z,21.50
2024-02-29T08:02:44.646Z,22.90
2024-02-29T08:04:46.895Z,22.88
2024-02-29T08:06:51.333Z,22.75
2024-02-29T08:08:54.450Z,21.85
2024-02-29T08:10:56.479Z,22.40
2024-02-29T08:12:59.624Z,22.70
2024-02-29T08:15:02.638Z,22.75
2024-02-29T08:17:06.100Z,24.10
2024-02-29T08:19:09.333Z,21.27
2024-02-29T08:21:11.480Z,22.77
2024-02-29T08:23:16.887Z,23.45
2024-02-29T08:25:19.967Z,19.70
2024-02-29T08:27:23.181Z,19.70
2024-02-29T08:29:25.223Z,22.65
2024-02-29T08:31:28.570Z,22.00
2024-02-29T08:33:31.728Z,22.33
2024-02-29T08:35:34.950Z,22.13
2024-02-29T08:37:38.152Z,22.38
2024-02-29T08:39:42.810Z,21.55
2024-02-29T08:41:45.716Z,22.83
2024-02-29T08:43:50.787Z,23.95
2024-02-29T08:45:54.345Z,20.27
2024-02-29T08:47:57.450Z,21.05
2024-02-29T08:50:00.572Z,19.80
2024-02-29T08:52:03.748Z,18.38
2024-02-29T08:54:09.057Z,17.42
2024-02-29T08:56:16.929Z,17.77
2024-02-29T08:58:20.095Z,17.75
2024-02-29T09:00:23.390Z,15.48
2024-02-29T09:02:25.468Z,18.20
2024-02-29T09:04:28.554Z,17.75
2024-02-29T09:06:40.859Z,16.67
2024-02-29T09:08:44.927Z,17.27
2024-02-29T09:10:47.970Z,16.20
2024-02-29T09:12:52.627Z,16.95
2024-02-29T09:14:55.723Z,18.08
2024-02-29T09:16:58.915Z,16.85
2024-02-29T09:19:04.072Z,18.10
2024-02-29T09:21:06.548Z,15.82
2024-02-29T09:23:09.602Z,15.60
2024-02-29T09:25:12.959Z,15.88
2024-02-29T09:27:18.240Z,15.57
2024-02-29T09:29:25.659Z,13.20
2024-02-29T09:31:29.918Z,13.45
2024-02-29T09:33:35.052Z,14.52
2024-02-29T09:35:38.057Z,15.23
2024-02-29T09:37:41.103Z,15.07
2024-02-29T09:39:44.267Z,14.57
2024-02-29T09:42:08.016Z,14.40
2024-02-29T09:44:11.752Z,13.98
2024-02-29T09:46:16.264Z,14.30
2024-02-29T09:48:19.709Z,13.88
2024-02-29T09:50:22.876Z,11.25
2024-02-29T09:52:26.796Z,12.90
2024-02-29T09:54:34.731Z,12.73
2024-02-29T09:56:37.986Z,12.68
2024-02-29T09:58:42.125Z,11.00
2024-02-29T10:00:45.339Z,11.68
2024-02-29T10:02:54.542Z,12.20
2024-02-29T10:04:58.971Z,11.90
2024-02-29T10:07:02.039Z,11.20
2024-02-29T10:09:05.461Z,10.02
2024-02-29T10:11:09.706Z,10.82
2024-02-29T10:13:12.863Z,11.73
2024-02-29T10:15:17.111Z,10.10
2024-02-29T10:17:20.199Z,7.55
2024-02-29T10:19:25.900Z,11.00
2024-02-29T10:21:29.140Z,7.68
2024-02-29T10:23:34.712Z,8.45
2024-02-29T10:25:38.975Z,9.05
2024-02-29T10:27:43.202Z,9.13
2024-02-29T10:29:46.317Z,6.88
2024-02-29T10:31:49.453Z,7.85
2024-02-29T10:33:52.662Z,7.60
2024-02-29T10:35:58.311Z,7.55
2024-02-29T10:38:00.475Z,9.00
2024-02-29T10:40:08.512Z,7.00
2024-02-29T10:42:12.554Z,7.63
2024-02-29T10:44:17.353Z,7.22
2024-02-29T10:46:21.818Z,7.13
2024-02-29T10:48:31.200Z,6.50
2024-02-29T10:50:41.688Z,6.07
2024-02-29T10:52:51.104Z,6.32
2024-02-29T10:54:59.979Z,6.88
2024-02-29T10:57:06.731Z,6.90
2024-02-29T10:59:10.022Z,7.07
2024-02-29T11:01:14.131Z,6.95
2024-02-29T11:03:22.150Z,6.35
2024-02-29T11:05:27.184Z,6.78
2024-02-29T11:07:30.473Z,6.65
2024-02-29T11:09:35.238Z,7.68
2024-02-29T11:11:39.464Z,5.68
2024-02-29T11:13:42.998Z,6.38
2024-02-29T11:15:45.263Z,6.45
2024-02-29T11:17:50.029Z,5.70
2024-02-29T11:19:59.204Z,7.40
2024-02-29T11:22:12.130Z,6.60
2024-02-29T11:24:19.622Z,7.03
2024-02-29T11:26:29.441Z,6.68
2024-02-29T11:28:34.237Z,6.90
2024-02-29T11:30:36.325Z,7.65
2024-02-29T11:32:39.438Z,7.13
2024-02-29T11:34:42.612Z,6.65
2024-02-29T11:36:46.890Z,7.88
2024-02-29T11:38:51.141Z,7.40
2024-02-29T11:40:54.239Z,7.65
2024-02-29T11:43:00.822Z,7.82
2024-02-29T11:45:04.732Z,7.90
2024-02-29T11:47:08.204Z,7.47
2024-02-29T11:49:14.865Z,7.38
2024-02-29T11:51:18.261Z,8.88
2024-02-29T11:53:31.304Z,8.20
2024-02-29T11:55:35.607Z,7.70
2024-02-29T11:57:38.719Z,7.80
2024-02-29T11:59:42.243Z,7.60
2024-02-29T12:01:48.863Z,7.35
2024-02-29T12:03:51.555Z,7.32
2024-02-29T12:05:55.000Z,7.93
2024-02-29T12:07:58.094Z,7.63
2024-02-29T12:10:05.484Z,8.43
2024-02-29T12:12:09.083Z,7.57
2024-02-29T12:14:13.043Z,6.85
2024-02-29T12:16:19.736Z,6.97
2024-02-29T12:18:23.219Z,6.80
2024-02-29T12:20:27.725Z,6.93
2024-02-29T12:22:30.718Z,6.15
2024-02-29T12:24:34.632Z,6.38
2024-02-29T12:26:39.505Z,5.60
2024-02-29T12:28:42.033Z,5.95
2024-02-29T12:30:50.048Z,6.43
2024-02-29T12:32:53.878Z,7.57
2024-02-29T12:34:58.430Z,7.60
2024-02-29T12:37:02.798Z,8.05
2024-02-29T12:39:05.968Z,6.78
2024-02-29T12:41:09.250Z,6.70
2024-02-29T12:43:17.507Z,6.85
2024-02-29T12:45:20.962Z,6.15
2024-02-29T12:47:24.405Z,6.53
2024-02-29T12:49:28.888Z,6.07
2024-02-29T12:51:31.001Z,6.43
2024-02-29T12:53:34.900Z,7.05
2024-02-29T12:55:38.007Z,7.18
2024-02-29T12:57:41.219Z,5.53
2024-02-29T12:59:44.306Z,6.25
2024-02-29T13:01:46.598Z,6.05
2024-02-29T13:03:50.088Z,7.80
2024-02-29T13:05:54.657Z,7.80
2024-02-29T13:07:57.857Z,7.50
2024-02-29T13:10:00.948Z,5.40
2024-02-29T13:12:04.437Z,5.75
2024-02-29T13:14:06.510Z,7.53
2024-02-29T13:16:09.591Z,6.55
2024-02-29T13:18:12.667Z,7.32
2024-02-29T13:20:16.153Z,6.68
2024-02-29T13:22:20.759Z,6.32
2024-02-29T13:24:23.829Z,7.32
2024-02-29T13:26:26.920Z,6.97
2024-02-29T13:28:29.972Z,5.50
2024-02-29T13:30:33.198Z,6.63
2024-02-29T13:32:36.287Z,6.07
2024-02-29T13:34:40.012Z,6.57
2024-02-29T13:36:42.136Z,6.63
2024-02-29T13:38:47.708Z,6.88
2024-02-29T13:40:50.705Z,6.57
2024-02-29T13:42:53.769Z,6.32
2024-02-29T13:44:56.837Z,5.75
2024-02-29T13:47:00.109Z,6.05
2024-02-29T13:49:20.836Z,5.45
2024-02-29T13:51:26.780Z,6.45
2024-02-29T13:53:31.888Z,5.30
2024-02-29T13:55:36.513Z,5.68
2024-02-29T13:57:39.674Z,5.80
2024-02-29T13:59:43.556Z,6.60
2024-02-29T14:01:47.054Z,6.72
2024-02-29T14:03:50.160Z,5.50
2024-02-29T14:05:53.529Z,4.75
2024-02-29T14:07:56.711Z,6.00
2024-02-29T14:09:59.844Z,5.30
2024-02-29T14:12:04.728Z,5.22
2024-02-29T14:14:07.846Z,5.07
2024-02-29T14:16:12.651Z,5.85
2024-02-29T14:18:15.812Z,6.03
2024-02-29T14:20:19.144Z,5.00
2024-02-29T14:22:21.294Z,4.85
2024-02-29T14:24:24.262Z,5.88
2024-02-29T14:26:27.486Z,5.78
2024-02-29T14:28:31.902Z,4.97
2024-02-29T14:30:36.996Z,5.88
2024-02-29T14:32:40.283Z,5.80
2024-02-29T14:34:45.558Z,5.13
2024-02-29T14:36:48.738Z,5.10
2024-02-29T14:38:52.260Z,5.88
2024-02-29T14:40:55.254Z,6.63
2024-02-29T14:42:58.452Z,5.35
2024-02-29T14:45:02.898Z,5.45
2024-02-29T14:47:06.362Z,4.05
2024-02-29T14:49:09.523Z,5.05
2024-02-29T14:51:14.482Z,6.07
2024-02-29T14:53:17.664Z,6.38
2024-02-29T14:55:20.764Z,4.85
2024-02-29T14:57:23.199Z,5.03
2024-02-29T14:59:26.254Z,5.20
2024-02-29T15:01:30.773Z,5.47
2024-02-29T15:03:33.894Z,4.75
2024-02-29T15:05:37.376Z,5.10
2024-02-29T15:07:43.135Z,4.88
2024-02-29T15:09:46.353Z,5.25
2024-02-29T15:11:48.597Z,4.93
2024-02-29T15:13:51.719Z,6.85
2024-02-29T15:15:54.035Z,6.95
2024-02-29T15:17:58.972Z,6.88
2024-02-29T15:20:01.741Z,7.72
2024-02-29T15:22:05.304Z,6.38
2024-02-29T15:24:09.117Z,6.45
2024-02-29T15:26:12.081Z,6.90
2024-02-29T15:28:16.595Z,6.30
2024-02-29T15:30:19.740Z,6.53
2024-02-29T15:32:23.802Z,7.05
2024-02-29T15:34:28.380Z,6.93
2024-02-29T15:36:31.832Z,6.38
2024-02-29T15:38:35.030Z,5.85
2024-02-29T15:40:38.113Z,6.53
2024-02-29T15:42:41.408Z,6.47
2024-02-29T15:44:44.500Z,6.07
2024-02-29T15:46:47.837Z,7.07
2024-02-29T15:48:50.886Z,6.28
2024-02-29T15:50:54.347Z,6.50
2024-02-29T15:52:57.393Z,5.72
2024-02-29T15:55:02.315Z,6.70
2024-02-29T15:57:09.702Z,6.05
2024-02-29T15:59:14.878Z,6.82
2024-02-29T16:01:18.044Z,6.97
2024-02-29T16:03:22.447Z,6.82
2024-02-29T16:05:28.301Z,7.85
2024-02-29T16:07:32.801Z,8.02
2024-02-29T16:09:35.969Z,7.57
2024-02-29T16:11:39.269Z,7.28
2024-02-29T16:13:42.743Z,7.63
2024-02-29T16:15:50.218Z,7.82
2024-02-29T16:17:53.739Z,6.93
2024-02-29T16:19:57.324Z,7.63
2024-02-29T16:22:00.904Z,7.38
2024-02-29T16:24:06.847Z,6.60
2024-02-29T16:26:09.962Z,7.65
2024-02-29T16:28:12.205Z,8.23
2024-02-29T16:30:15.591Z,7.05
2024-02-29T16:32:21.241Z,7.65
2024-02-29T16:34:24.504Z,7.10
2024-02-29T16:36:27.520Z,8.40
2024-02-29T16:38:30.816Z,6.40
2024-02-29T16:40:37.418Z,6.78
2024-02-29T16:42:40.738Z,7.00
2024-02-29T16:44:44.680Z,7.28
2024-02-29T16:46:47.773Z,6.97
2024-02-29T16:48:51.280Z,7.72
2024-02-29T16:50:54.654Z,7.80
2024-02-29T16:52:57.878Z,7.20
2024-02-29T16:55:00.960Z,7.88
2024-02-29T16:57:06.079Z,8.10
2024-02-29T16:59:09.069Z,7.10
2024-02-29T17:01:12.247Z,7.38
2024-02-29T17:03:15.326Z,7.90
2024-02-29T17:05:18.361Z,7.32
2024-02-29T17:07:21.628Z,7.80
2024-02-29T17:09:24.784Z,9.15
2024-02-29T17:11:27.882Z,8.52
2024-02-29T17:13:32.432Z,7.47
2024-02-29T17:15:38.329Z,7.40
2024-02-29T17:17:40.819Z,8.20
2024-02-29T17:19:43.904Z,8.32
2024-02-29T17:21:48.230Z,8.25
2024-02-29T17:23:51.238Z,7.32
2024-02-29T17:25:54.390Z,7.25
2024-02-29T17:27:57.769Z,7.18
2024-02-29T17:30:01.298Z,7.90
2024-02-29T17:32:04.532Z,7.97
2024-02-29T17:34:09.522Z,8.68
2024-02-29T17:36:13.952Z,8.00
2024-02-29T17:38:17.740Z,8.75
2024-02-29T17:40:21.114Z,7.70
2024-02-29T17:42:28.252Z,23.77
2024-02-29T17:44:31.290Z,16.35
2024-02-29T17:46:35.914Z,11.40
2024-02-29T17:48:39.293Z,9.95
2024-02-29T17:50:42.356Z,9.40
2024-02-29T17:52:45.561Z,9.27
2024-02-29T17:54:48.621Z,8.10
2024-02-29T17:56:53.271Z,10.40
2024-02-29T17:58:56.432Z,9.63
2024-02-29T18:01:01.202Z,9.95
2024-02-29T18:03:06.088Z,10.20
2024-02-29T18:05:09.055Z,10.05
2024-02-29T18:07:14.832Z,9.25
2024-02-29T18:09:18.092Z,9.80
2024-02-29T18:11:21.193Z,8.98
2024-02-29T18:13:24.263Z,10.40
2024-02-29T18:15:26.402Z,9.60
2024-02-29T18:17:30.125Z,9.73
2024-02-29T18:19:33.780Z,10.75
2024-02-29T18:21:44.056Z,9.88
2024-02-29T18:23:47.229Z,11.57
2024-02-29T18:25:52.762Z,12.10
2024-02-29T18:27:55.948Z,13.38
2024-02-29T18:29:58.144Z,11.68
2024-02-29T18:32:01.208Z,12.05
2024-02-29T18:34:04.429Z,12.73
2024-02-29T18:36:10.035Z,11.73
2024-02-29T18:38:13.126Z,12.27
2024-02-29T18:40:16.852Z,10.52
2024-02-29T18:42:20.266Z,11.70
2024-02-29T18:44:25.446Z,11.70
2024-02-29T18:46:35.893Z,9.85
2024-02-29T18:48:39.047Z,10.05
2024-02-29T18:50:42.496Z,9.35
2024-02-29T18:52:46.967Z,9.57
2024-02-29T18:54:50.119Z,10.23
2024-02-29T18:56:53.127Z,10.85
2024-02-29T18:58:57.956Z,10.65
2024-02-29T19:01:01.531Z,10.80
2024-02-29T19:03:05.165Z,10.38
2024-02-29T19:05:09.010Z,10.65
2024-02-29T19:07:12.450Z,11.20
2024-02-29T19:09:16.838Z,10.32
2024-02-29T19:11:20.130Z,10.85
2024-02-29T19:13:24.579Z,10.80
2024-02-29T19:15:29.863Z,11.25
2024-02-29T19:17:32.841Z,12.35
2024-02-29T19:19:36.006Z,13.98
2024-02-29T19:21:39.260Z,13.50
2024-02-29T19:23:42.288Z,14.82
2024-02-29T19:25:47.140Z,14.50
2024-02-29T19:27:50.218Z,15.23
2024-02-29T19:29:53.562Z,15.77
2024-02-29T19:31:56.769Z,15.55
2024-02-29T19:33:59.827Z,15.75
2024-02-29T19:36:02.966Z,16.27
2024-02-29T19:38:06.043Z,17.02
2024-02-29T19:40:10.608Z,17.73
2024-02-29T19:42:16.142Z,16.58
2024-02-29T19:44:19.319Z,17.23
2024-02-29T19:46:23.485Z,13.73
2024-02-29T19:48:26.588Z,13.43
2024-02-29T19:50:30.324Z,12.02
2024-02-29T19:52:36.224Z,10.90
2024-02-29T19:54:39.467Z,11.40
2024-02-29T19:56:42.578Z,11.10
2024-02-29T19:58:47.071Z,11.10
2024-02-29T20:00:50.423Z,10.23
2024-02-29T20:02:53.560Z,9.85
2024-02-29T20:04:56.687Z,11.35
2024-02-29T20:06:59.772Z,10.60
2024-02-29T20:09:02.982Z,12.30
2024-02-29T20:11:06.331Z,11.20
2024-02-29T20:13:08.414Z,12.30
2024-02-29T20:15:16.017Z,12.27
2024-02-29T20:17:18.458Z,11.60
2024-02-29T20:19:21.528Z,11.48
2024-02-29T20:21:24.712Z,10.93
2024-02-29T20:23:27.840Z,11.63
2024-02-29T20:25:31.296Z,11.57
2024-02-29T20:27:36.763Z,12.57
2024-02-29T20:29:42.518Z,11.73
2024-02-29T20:31:48.050Z,12.55
2024-02-29T20:33:51.549Z,11.93
2024-02-29T20:35:54.671Z,12.80
2024-02-29T20:37:57.830Z,13.13
2024-02-29T20:40:01.536Z,13.65
2024-02-29T20:42:05.084Z,14.52
2024-02-29T20:44:08.631Z,16.20
2024-02-29T20:46:17.541Z,19.33
2024-02-29T20:48:22.112Z,16.48
2024-02-29T20:50:24.210Z,17.35
2024-02-29T20:52:27.681Z,17.30
2024-02-29T20:54:30.843Z,18.75
2024-02-29T20:56:35.937Z,18.27
2024-02-29T20:58:39.021Z,20.00
2024-02-29T21:00:42.044Z,18.85
2024-02-29T21:02:44.150Z,20.52
2024-02-29T21:04:49.980Z,20.75
2024-02-29T21:08:57.969Z,18.98
2024-02-29T21:11:01.680Z,20.05
2024-02-29T21:13:05.180Z,19.15
2024-02-29T21:15:10.965Z,19.00
2024-02-29T21:17:15.249Z,19.50
2024-02-29T21:19:19.107Z,18.35
2024-02-29T21:21:23.697Z,18.58
2024-02-29T21:23:26.694Z,17.50
2024-02-29T21:25:30.400Z,17.63
2024-02-29T21:27:32.736Z,18.23
2024-02-29T21:29:36.360Z,17.80
2024-02-29T21:31:40.096Z,16.80
2024-02-29T21:33:43.290Z,19.65
2024-02-29T21:35:47.765Z,19.20
2024-02-29T21:37:52.054Z,18.48
2024-02-29T21:39:56.795Z,19.48
2024-02-29T21:41:59.873Z,19.58
2024-02-29T21:44:03.515Z,20.17
2024-02-29T21:46:06.900Z,19.75
2024-02-29T21:48:10.000Z,20.17
2024-02-29T21:50:13.260Z,18.30
2024-02-29T21:52:16.327Z,20.55
2024-02-29T21:54:23.033Z,20.20
2024-02-29T21:56:25.203Z,19.77
2024-02-29T21:58:29.860Z,19.63
2024-02-29T22:00:32.950Z,20.55
2024-02-29T22:02:35.980Z,19.25
2024-02-29T22:04:38.162Z,20.92
2024-02-29T22:06:41.194Z,19.10
2024-02-29T22:08:44.394Z,20.50
2024-02-29T22:10:48.966Z,20.70
2024-02-29T22:12:52.220Z,20.73
2024-02-29T22:14:55.357Z,19.73
2024-02-29T22:16:58.411Z,18.83
2024-02-29T22:19:00.406Z,19.42
2024-02-29T22:21:03.741Z,19.30
2024-02-29T22:23:06.785Z,19.65
2024-02-29T22:25:10.243Z,19.70
2024-02-29T22:27:14.622Z,20.33
2024-02-29T22:29:17.798Z,20.35
2024-02-29T22:31:21.079Z,19.25
2024-02-29T22:33:24.668Z,19.58
2024-02-29T22:39:04.045Z,20.45
2024-02-29T22:41:11.061Z,20.40
2024-02-29T22:43:21.640Z,19.70
2024-02-29T22:45:31.120Z,19.50
2024-02-29T22:47:34.212Z,19.65
2024-02-29T22:49:37.322Z,18.25
2024-02-29T22:51:42.410Z,19.40
2024-02-29T22:53:45.528Z,20.33
2024-02-29T22:55:51.300Z,19.15
2024-02-29T22:59:01.831Z,18.45
2024-02-29T23:01:06.358Z,18.38
2024-02-29T23:03:08.786Z,20.42
2024-02-29T23:05:13.842Z,19.73
2024-02-29T23:07:16.929Z,19.63
2024-02-29T23:09:20.045Z,19.58
2024-02-29T23:11:23.148Z,20.23
2024-02-29T23:13:26.577Z,19.85
2024-02-29T23:15:29.971Z,19.25
2024-02-29T23:17:33.944Z,20.70
2024-02-29T23:19:37.253Z,20.15
2024-02-29T23:21:40.286Z,20.17
2024-02-29T23:23:47.297Z,21.90
2024-02-29T23:25:50.956Z,22.20
2024-02-29T23:27:54.338Z,20.85
2024-02-29T23:29:57.686Z,21.45
2024-02-29T23:32:00.757Z,20.30
2024-02-29T23:34:09.271Z,22.25
2024-02-29T23:36:14.875Z,23.45
2024-02-29T23:38:17.825Z,21.98
2024-02-29T23:40:23.313Z,20.23
2024-02-29T23:42:26.659Z,21.13
2024-02-29T23:44:30.124Z,21.70
2024-02-29T23:46:33.290Z,21.20
2024-02-29T23:48:36.680Z,20.95
2024-02-29T23:50:41.310Z,20.20
2024-02-29T23:52:49.519Z,21.85
2024-02-29T23:54:52.721Z,19.58
2024-02-29T23:56:56.065Z,19.42
2024-02-29T23:58:59.220Z,20.35
